sensor_id;sensor_type;location;lat;lon;timestamp;pressure;altitude;pressure_sealevel;temperature;humidity
11049;BME280;5577;42.706;23.160;2023-06-01T00:00:38;94317.25;;;13.63;100.00
11049;BME280;5577;42.706;23.160;2023-06-01T00:03:23;94340.59;;;13.76;100.00
11049;BME280;5577;42.706;23.160;2023-06-01T00:06:09;94336.00;;;13.73;100.00
11049;BME280;5577;42.706;23.160;2023-06-01T00:08:53;94341.47;;;13.84;100.00
11049;BME280;5577;42.706;23.160;2023-06-01T00:11:37;94330.03;;;13.80;100.00
11049;BME280;5577;42.706;23.160;2023-06-01T00:14:21;94328.53;;;13.82;100.00
11049;BME280;5577;42.706;23.160;2023-06-01T00:17:05;94331.56;;;13.81;100.00
11049;BME280;5577;42.706;23.160;2023-06-01T00:19:51;94324.38;;;13.85;100.00
11049;BME280;5577;42.706;23.160;2023-06-01T00:22:37;94323.28;;;13.86;100.00
11049;BME280;5577;42.706;23.160;2023-06-01T00:25:24;94324.56;;;13.69;100.00
11049;BME280;5577;42.706;23.160;2023-06-01T00:28:08;94327.91;;;13.63;100.00
11049;BME280;5577;42.706;23.160;2023-06-01T00:30:52;94319.59;;;13.68;100.00
11049;BME280;5577;42.706;23.160;2023-06-01T00:33:37;94326.41;;;13.65;100.00
11049;BME280;5577;42.706;23.160;2023-06-01T00:36:21;94322.56;;;13.63;100.00
11049;BME280;5577;42.706;23.160;2023-06-01T00:39:05;94329.84;;;13.66;100.00
11049;BME280;5577;42.706;23.160;2023-06-01T00:41:49;94328.22;;;13.58;100.00
11049;BME280;5577;42.706;23.160;2023-06-01T00:44:33;94328.13;;;13.51;100.00
11049;BME280;5577;42.706;23.160;2023-06-01T00:47:17;94329.53;;;13.45;100.00
11049;BME280;5577;42.706;23.160;2023-06-01T00:50:01;94327.50;;;13.35;100.00
11049;BME280;5577;42.706;23.160;2023-06-01T00:52:46;94325.19;;;13.33;100.00
11049;BME280;5577;42.706;23.160;2023-06-01T00:55:32;94336.97;;;13.32;100.00
11049;BME280;5577;42.706;23.160;2023-06-01T00:58:17;94324.94;;;13.16;100.00
11049;BME280;5577;42.706;23.160;2023-06-01T01:01:02;94342.81;;;13.19;100.00
11049;BME280;5577;42.706;23.160;2023-06-01T01:03:47;94340.03;;;13.12;100.00
11049;BME280;5577;42.706;23.160;2023-06-01T01:06:53;94342.22;;;13.06;100.00
11049;BME280;5577;42.706;23.160;2023-06-01T01:15:57;94343.66;;;13.00;100.00
11049;BME280;5577;42.706;23.160;2023-06-01T01:18:47;94336.38;;;12.97;100.00
11049;BME280;5577;42.706;23.160;2023-06-01T01:21:39;94347.16;;;12.85;100.00
11049;BME280;5577;42.706;23.160;2023-06-01T01:24:45;94337.66;;;12.84;100.00
11049;BME280;5577;42.706;23.160;2023-06-01T01:27:45;94318.91;;;12.74;100.00
11049;BME280;5577;42.706;23.160;2023-06-01T01:30:38;94334.59;;;12.82;100.00
11049;BME280;5577;42.706;23.160;2023-06-01T01:33:24;94332.09;;;12.70;100.00
11049;BME280;5577;42.706;23.160;2023-06-01T01:36:10;94335.34;;;12.60;100.00
11049;BME280;5577;42.706;23.160;2023-06-01T01:38:54;94338.00;;;12.60;100.00
11049;BME280;5577;42.706;23.160;2023-06-01T01:41:38;94339.19;;;12.63;100.00
11049;BME280;5577;42.706;23.160;2023-06-01T01:44:22;94340.19;;;12.55;100.00
11049;BME280;5577;42.706;23.160;2023-06-01T01:47:24;94339.69;;;12.49;100.00
11049;BME280;5577;42.706;23.160;2023-06-01T01:50:12;94344.78;;;12.58;100.00
11049;BME280;5577;42.706;23.160;2023-06-01T01:52:58;94314.84;;;12.38;100.00
11049;BME280;5577;42.706;23.160;2023-06-01T01:55:45;94343.13;;;12.50;100.00
11049;BME280;5577;42.706;23.160;2023-06-01T01:58:30;94351.22;;;12.57;100.00
11049;BME280;5577;42.706;23.160;2023-06-01T02:01:15;94344.00;;;12.57;100.00
11049;BME280;5577;42.706;23.160;2023-06-01T02:04:04;94346.13;;;12.48;100.00
11049;BME280;5577;42.706;23.160;2023-06-01T02:06:51;94348.00;;;12.48;100.00
11049;BME280;5577;42.706;23.160;2023-06-01T02:09:36;94353.31;;;12.48;100.00
11049;BME280;5577;42.706;23.160;2023-06-01T02:12:20;94353.75;;;12.50;100.00
11049;BME280;5577;42.706;23.160;2023-06-01T02:15:05;94359.19;;;12.57;100.00
11049;BME280;5577;42.706;23.160;2023-06-01T02:17:49;94355.53;;;12.65;100.00
11049;BME280;5577;42.706;23.160;2023-06-01T02:20:34;94347.88;;;12.60;100.00
11049;BME280;5577;42.706;23.160;2023-06-01T02:23:18;94354.00;;;12.64;100.00
11049;BME280;5577;42.706;23.160;2023-06-01T02:26:01;94355.09;;;12.63;100.00
11049;BME280;5577;42.706;23.160;2023-06-01T02:28:46;94356.31;;;12.65;100.00
11049;BME280;5577;42.706;23.160;2023-06-01T02:31:31;94356.94;;;12.59;100.00
11049;BME280;5577;42.706;23.160;2023-06-01T02:34:16;94349.75;;;12.59;100.00
11049;BME280;5577;42.706;23.160;2023-06-01T02:37:00;94354.63;;;12.57;100.00
11049;BME280;5577;42.706;23.160;2023-06-01T02:39:44;94355.38;;;12.54;100.00
11049;BME280;5577;42.706;23.160;2023-06-01T02:42:28;94353.06;;;12.53;100.00
11049;BME280;5577;42.706;23.160;2023-06-01T02:45:12;94354.94;;;12.52;100.00
11049;BME280;5577;42.706;23.160;2023-06-01T02:47:55;94356.41;;;12.50;100.00
11049;BME280;5577;42.706;23.160;2023-06-01T02:50:40;94354.16;;;12.52;100.00
11049;BME280;5577;42.706;23.160;2023-06-01T02:53:23;94324.78;;;12.22;100.00
11049;BME280;5577;42.706;23.160;2023-06-01T02:56:10;94349.72;;;12.37;100.00
11049;BME280;5577;42.706;23.160;2023-06-01T02:58:54;94356.75;;;12.29;100.00
11049;BME280;5577;42.706;23.160;2023-06-01T03:01:38;94358.44;;;12.37;100.00
11049;BME280;5577;42.706;23.160;2023-06-01T03:04:23;94337.59;;;12.39;100.00
11049;BME280;5577;42.706;23.160;2023-06-01T03:07:07;94346.88;;;12.49;100.00
11049;BME280;5577;42.706;23.160;2023-06-01T03:09:50;94354.97;;;12.56;100.00
11049;BME280;5577;42.706;23.160;2023-06-01T03:12:34;94361.28;;;12.67;100.00
11049;BME280;5577;42.706;23.160;2023-06-01T03:15:18;94355.66;;;12.72;100.00
11049;BME280;5577;42.706;23.160;2023-06-01T03:18:04;94357.66;;;12.78;100.00
11049;BME280;5577;42.706;23.160;2023-06-01T03:20:49;94344.69;;;12.73;100.00
11049;BME280;5577;42.706;23.160;2023-06-01T03:23:33;94369.47;;;13.00;100.00
11049;BME280;5577;42.706;23.160;2023-06-01T03:26:17;94370.00;;;13.09;100.00
11049;BME280;5577;42.706;23.160;2023-06-01T03:29:04;94364.50;;;13.21;100.00
11049;BME280;5577;42.706;23.160;2023-06-01T03:31:49;94360.47;;;13.30;100.00
11049;BME280;5577;42.706;23.160;2023-06-01T03:34:33;94364.75;;;13.38;100.00
11049;BME280;5577;42.706;23.160;2023-06-01T03:37:20;94360.38;;;13.49;100.00
11049;BME280;5577;42.706;23.160;2023-06-01T03:40:05;94367.34;;;13.57;100.00
11049;BME280;5577;42.706;23.160;2023-06-01T03:42:56;94368.50;;;13.60;100.00
11049;BME280;5577;42.706;23.160;2023-06-01T03:45:40;94361.75;;;13.66;100.00
11049;BME280;5577;42.706;23.160;2023-06-01T03:48:24;94364.19;;;13.78;100.00
11049;BME280;5577;42.706;23.160;2023-06-01T03:51:08;94364.72;;;13.87;100.00
11049;BME280;5577;42.706;23.160;2023-06-01T03:53:52;94370.50;;;13.92;100.00
11049;BME280;5577;42.706;23.160;2023-06-01T03:56:36;94378.50;;;13.96;100.00
11049;BME280;5577;42.706;23.160;2023-06-01T03:59:20;94376.69;;;14.00;100.00
11049;BME280;5577;42.706;23.160;2023-06-01T04:02:05;94372.13;;;14.00;100.00
11049;BME280;5577;42.706;23.160;2023-06-01T04:04:49;94366.84;;;14.04;100.00
11049;BME280;5577;42.706;23.160;2023-06-01T04:07:33;94366.88;;;14.07;100.00
11049;BME280;5577;42.706;23.160;2023-06-01T04:10:19;94370.72;;;14.10;100.00
11049;BME280;5577;42.706;23.160;2023-06-01T04:13:03;94350.53;;;14.05;100.00
11049;BME280;5577;42.706;23.160;2023-06-01T04:15:47;94373.09;;;14.18;100.00
11049;BME280;5577;42.706;23.160;2023-06-01T04:18:30;94373.22;;;14.25;100.00
11049;BME280;5577;42.706;23.160;2023-06-01T04:21:14;94375.66;;;14.38;100.00
11049;BME280;5577;42.706;23.160;2023-06-01T04:23:58;94385.25;;;14.46;100.00
11049;BME280;5577;42.706;23.160;2023-06-01T04:26:42;94380.72;;;14.46;100.00
11049;BME280;5577;42.706;23.160;2023-06-01T04:29:27;94373.06;;;14.45;100.00
11049;BME280;5577;42.706;23.160;2023-06-01T04:32:11;94375.03;;;14.51;100.00
11049;BME280;5577;42.706;23.160;2023-06-01T04:35:06;94370.94;;;14.57;100.00
11049;BME280;5577;42.706;23.160;2023-06-01T04:37:50;94384.13;;;14.47;100.00
11049;BME280;5577;42.706;23.160;2023-06-01T04:40:35;94388.19;;;14.37;100.00
11049;BME280;5577;42.706;23.160;2023-06-01T04:43:19;94389.09;;;14.48;100.00
11049;BME280;5577;42.706;23.160;2023-06-01T04:46:04;94394.34;;;14.41;100.00
11049;BME280;5577;42.706;23.160;2023-06-01T04:48:52;94386.41;;;14.48;100.00
11049;BME280;5577;42.706;23.160;2023-06-01T04:51:36;94398.06;;;14.07;100.00
11049;BME280;5577;42.706;23.160;2023-06-01T04:54:21;94393.03;;;14.28;100.00
11049;BME280;5577;42.706;23.160;2023-06-01T04:57:05;94392.53;;;14.49;100.00
11049;BME280;5577;42.706;23.160;2023-06-01T04:59:49;94398.69;;;14.56;100.00
11049;BME280;5577;42.706;23.160;2023-06-01T05:02:34;94390.81;;;14.67;100.00
11049;BME280;5577;42.706;23.160;2023-06-01T05:05:18;94383.34;;;14.79;100.00
11049;BME280;5577;42.706;23.160;2023-06-01T05:08:02;94390.13;;;14.73;100.00
11049;BME280;5577;42.706;23.160;2023-06-01T05:10:46;94392.78;;;14.73;100.00
11049;BME280;5577;42.706;23.160;2023-06-01T05:13:30;94395.56;;;14.84;100.00
11049;BME280;5577;42.706;23.160;2023-06-01T05:16:14;94394.28;;;15.07;100.00
11049;BME280;5577;42.706;23.160;2023-06-01T05:18:58;94392.81;;;15.13;100.00
11049;BME280;5577;42.706;23.160;2023-06-01T05:21:42;94394.47;;;15.28;100.00
11049;BME280;5577;42.706;23.160;2023-06-01T05:24:27;94390.59;;;15.19;100.00
11049;BME280;5577;42.706;23.160;2023-06-01T05:27:11;94384.53;;;15.22;100.00
11049;BME280;5577;42.706;23.160;2023-06-01T05:29:55;94390.66;;;15.29;100.00
11049;BME280;5577;42.706;23.160;2023-06-01T05:32:39;94384.56;;;15.29;100.00
11049;BME280;5577;42.706;23.160;2023-06-01T05:35:23;94378.25;;;15.44;100.00
11049;BME280;5577;42.706;23.160;2023-06-01T05:38:07;94390.78;;;15.40;100.00
11049;BME280;5577;42.706;23.160;2023-06-01T05:40:51;94389.19;;;15.35;100.00
11049;BME280;5577;42.706;23.160;2023-06-01T05:43:35;94395.41;;;15.46;100.00
11049;BME280;5577;42.706;23.160;2023-06-01T05:46:19;94389.69;;;15.44;100.00
11049;BME280;5577;42.706;23.160;2023-06-01T05:49:04;94393.00;;;15.34;100.00
11049;BME280;5577;42.706;23.160;2023-06-01T05:51:48;94387.75;;;15.41;100.00
11049;BME280;5577;42.706;23.160;2023-06-01T05:54:32;94382.75;;;15.36;100.00
11049;BME280;5577;42.706;23.160;2023-06-01T05:57:16;94387.47;;;15.53;100.00
11049;BME280;5577;42.706;23.160;2023-06-01T06:00:00;94383.94;;;15.39;100.00
11049;BME280;5577;42.706;23.160;2023-06-01T06:02:44;94386.63;;;15.42;100.00
11049;BME280;5577;42.706;23.160;2023-06-01T06:05:28;94401.72;;;15.75;100.00
11049;BME280;5577;42.706;23.160;2023-06-01T06:08:12;94399.84;;;15.82;100.00
11049;BME280;5577;42.706;23.160;2023-06-01T06:10:56;94399.44;;;15.73;100.00
11049;BME280;5577;42.706;23.160;2023-06-01T06:13:40;94400.91;;;15.64;100.00
11049;BME280;5577;42.706;23.160;2023-06-01T06:16:24;94397.97;;;15.79;100.00
11049;BME280;5577;42.706;23.160;2023-06-01T06:19:08;94397.19;;;15.79;100.00
11049;BME280;5577;42.706;23.160;2023-06-01T06:21:52;94404.13;;;15.94;100.00
11049;BME280;5577;42.706;23.160;2023-06-01T06:24:36;94396.13;;;15.90;100.00
11049;BME280;5577;42.706;23.160;2023-06-01T06:27:20;94397.75;;;16.12;100.00
11049;BME280;5577;42.706;23.160;2023-06-01T06:30:04;94406.28;;;16.39;100.00
11049;BME280;5577;42.706;23.160;2023-06-01T06:32:48;94400.59;;;16.44;100.00
11049;BME280;5577;42.706;23.160;2023-06-01T06:35:32;94396.75;;;16.41;100.00
11049;BME280;5577;42.706;23.160;2023-06-01T06:38:16;94401.31;;;16.37;100.00
11049;BME280;5577;42.706;23.160;2023-06-01T06:41:00;94398.66;;;16.34;100.00
11049;BME280;5577;42.706;23.160;2023-06-01T06:43:44;94307.69;;;15.99;100.00
11049;BME280;5577;42.706;23.160;2023-06-01T06:46:28;94395.78;;;16.84;100.00
11049;BME280;5577;42.706;23.160;2023-06-01T06:49:12;94393.13;;;16.91;100.00
11049;BME280;5577;42.706;23.160;2023-06-01T06:51:56;94390.47;;;16.98;100.00
11049;BME280;5577;42.706;23.160;2023-06-01T06:54:40;94397.00;;;17.26;100.00
11049;BME280;5577;42.706;23.160;2023-06-01T06:57:24;94397.06;;;17.71;100.00
11049;BME280;5577;42.706;23.160;2023-06-01T07:00:10;94352.69;;;17.74;100.00
11049;BME280;5577;42.706;23.160;2023-06-01T07:02:58;94393.56;;;18.13;100.00
11049;BME280;5577;42.706;23.160;2023-06-01T07:05:43;94382.03;;;18.26;100.00
11049;BME280;5577;42.706;23.160;2023-06-01T07:08:29;94377.81;;;18.32;100.00
11049;BME280;5577;42.706;23.160;2023-06-01T07:11:18;94382.03;;;18.26;100.00
11049;BME280;5577;42.706;23.160;2023-06-01T07:14:03;94384.03;;;17.98;100.00
11049;BME280;5577;42.706;23.160;2023-06-01T07:16:47;94385.50;;;18.20;100.00
11049;BME280;5577;42.706;23.160;2023-06-01T07:19:30;94378.19;;;18.31;100.00
11049;BME280;5577;42.706;23.160;2023-06-01T07:22:17;94375.16;;;18.36;100.00
11049;BME280;5577;42.706;23.160;2023-06-01T07:25:01;94382.44;;;18.11;100.00
11049;BME280;5577;42.706;23.160;2023-06-01T07:27:44;94380.59;;;17.76;100.00
11049;BME280;5577;42.706;23.160;2023-06-01T07:30:29;94375.25;;;17.41;100.00
11049;BME280;5577;42.706;23.160;2023-06-01T07:33:13;94379.09;;;17.58;100.00
11049;BME280;5577;42.706;23.160;2023-06-01T07:35:57;94358.41;;;17.69;100.00
11049;BME280;5577;42.706;23.160;2023-06-01T07:38:42;94368.72;;;17.91;100.00
11049;BME280;5577;42.706;23.160;2023-06-01T07:41:26;94366.41;;;18.07;100.00
11049;BME280;5577;42.706;23.160;2023-06-01T07:44:10;94367.88;;;18.22;100.00
11049;BME280;5577;42.706;23.160;2023-06-01T07:46:54;94362.03;;;18.62;100.00
11049;BME280;5577;42.706;23.160;2023-06-01T07:49:38;94354.97;;;18.89;100.00
11049;BME280;5577;42.706;23.160;2023-06-01T07:52:22;94330.78;;;18.96;100.00
11049;BME280;5577;42.706;23.160;2023-06-01T07:55:07;94300.63;;;18.82;100.00
11049;BME280;5577;42.706;23.160;2023-06-01T07:57:53;94347.16;;;19.12;100.00
11049;BME280;5577;42.706;23.160;2023-06-01T08:00:37;94335.84;;;19.42;100.00
11049;BME280;5577;42.706;23.160;2023-06-01T08:03:21;94338.22;;;19.33;100.00
11049;BME280;5577;42.706;23.160;2023-06-01T08:06:09;94330.00;;;19.54;100.00
11049;BME280;5577;42.706;23.160;2023-06-01T08:08:55;94335.69;;;19.63;100.00
11049;BME280;5577;42.706;23.160;2023-06-01T08:11:38;94336.53;;;19.94;100.00
11049;BME280;5577;42.706;23.160;2023-06-01T08:14:23;94332.31;;;20.30;100.00
11049;BME280;5577;42.706;23.160;2023-06-01T08:17:07;94320.38;;;20.34;100.00
11049;BME280;5577;42.706;23.160;2023-06-01T08:19:52;94326.53;;;20.95;100.00
11049;BME280;5577;42.706;23.160;2023-06-01T08:22:37;94322.84;;;21.35;100.00
11049;BME280;5577;42.706;23.160;2023-06-01T08:25:21;94323.13;;;21.63;100.00
11049;BME280;5577;42.706;23.160;2023-06-01T08:28:06;94322.09;;;21.34;100.00
11049;BME280;5577;42.706;23.160;2023-06-01T08:30:50;94322.31;;;21.20;100.00
11049;BME280;5577;42.706;23.160;2023-06-01T08:33:34;94314.72;;;21.38;100.00
11049;BME280;5577;42.706;23.160;2023-06-01T08:36:19;94319.53;;;21.24;100.00
11049;BME280;5577;42.706;23.160;2023-06-01T08:39:23;94308.69;;;21.54;100.00
11049;BME280;5577;42.706;23.160;2023-06-01T08:42:30;94307.03;;;21.83;100.00
11049;BME280;5577;42.706;23.160;2023-06-01T08:45:19;94317.22;;;22.14;100.00
11049;BME280;5577;42.706;23.160;2023-06-01T08:48:04;94302.50;;;22.19;100.00
11049;BME280;5577;42.706;23.160;2023-06-01T08:50:53;94295.41;;;22.48;100.00
11049;BME280;5577;42.706;23.160;2023-06-01T08:53:38;94300.44;;;22.46;100.00
11049;BME280;5577;42.706;23.160;2023-06-01T08:56:27;94296.34;;;22.18;100.00
11049;BME280;5577;42.706;23.160;2023-06-01T08:59:11;94284.88;;;22.14;100.00
11049;BME280;5577;42.706;23.160;2023-06-01T09:01:58;94290.31;;;22.70;100.00
11049;BME280;5577;42.706;23.160;2023-06-01T09:04:42;94295.88;;;22.43;100.00
11049;BME280;5577;42.706;23.160;2023-06-01T09:07:28;94297.53;;;22.37;100.00
11049;BME280;5577;42.706;23.160;2023-06-01T09:10:13;94285.66;;;22.54;100.00
11049;BME280;5577;42.706;23.160;2023-06-01T09:12:57;94291.53;;;22.85;100.00
11049;BME280;5577;42.706;23.160;2023-06-01T09:15:51;94293.97;;;23.31;100.00
11049;BME280;5577;42.706;23.160;2023-06-01T09:18:51;94285.16;;;24.19;100.00
11049;BME280;5577;42.706;23.160;2023-06-01T09:21:36;94286.88;;;24.54;100.00
11049;BME280;5577;42.706;23.160;2023-06-01T09:24:20;94279.16;;;24.81;100.00
11049;BME280;5577;42.706;23.160;2023-06-01T09:27:06;94280.00;;;25.41;100.00
11049;BME280;5577;42.706;23.160;2023-06-01T09:29:58;94278.59;;;25.83;100.00
11049;BME280;5577;42.706;23.160;2023-06-01T09:32:46;94268.19;;;25.82;100.00
11049;BME280;5577;42.706;23.160;2023-06-01T09:35:38;94267.84;;;25.92;100.00
11049;BME280;5577;42.706;23.160;2023-06-01T09:38:26;94283.22;;;26.51;100.00
11049;BME280;5577;42.706;23.160;2023-06-01T09:41:10;94272.44;;;26.17;98.89
11049;BME280;5577;42.706;23.160;2023-06-01T09:43:54;94278.25;;;25.60;100.00
11049;BME280;5577;42.706;23.160;2023-06-01T09:46:49;94266.47;;;24.37;100.00
11049;BME280;5577;42.706;23.160;2023-06-01T09:49:38;94256.41;;;24.25;100.00
11049;BME280;5577;42.706;23.160;2023-06-01T09:52:22;94257.69;;;24.21;100.00
11049;BME280;5577;42.706;23.160;2023-06-01T09:55:08;94226.22;;;24.39;100.00
11049;BME280;5577;42.706;23.160;2023-06-01T09:57:53;94250.44;;;25.34;100.00
11049;BME280;5577;42.706;23.160;2023-06-01T10:00:58;94230.28;;;24.72;100.00
11049;BME280;5577;42.706;23.160;2023-06-01T10:03:44;94237.53;;;23.65;100.00
11049;BME280;5577;42.706;23.160;2023-06-01T10:06:32;94233.50;;;23.41;100.00
11049;BME280;5577;42.706;23.160;2023-06-01T10:09:19;94234.38;;;23.22;100.00
11049;BME280;5577;42.706;23.160;2023-06-01T10:12:04;94232.00;;;23.24;100.00
11049;BME280;5577;42.706;23.160;2023-06-01T10:14:50;94225.09;;;23.39;100.00
11049;BME280;5577;42.706;23.160;2023-06-01T10:17:35;94216.81;;;23.30;100.00
11049;BME280;5577;42.706;23.160;2023-06-01T10:20:23;64821.28;;;-141.11;100.00
11049;BME280;5577;42.706;23.160;2023-06-01T10:23:07;94229.75;;;22.71;100.00
11049;BME280;5577;42.706;23.160;2023-06-01T10:25:51;94234.63;;;22.60;100.00
11049;BME280;5577;42.706;23.160;2023-06-01T10:28:37;94230.44;;;22.59;100.00
11049;BME280;5577;42.706;23.160;2023-06-01T10:34:41;94210.41;;;21.62;100.00
11049;BME280;5577;42.706;23.160;2023-06-01T10:37:26;94239.78;;;21.53;100.00
11049;BME280;5577;42.706;23.160;2023-06-01T10:43:00;94226.47;;;21.23;100.00
11049;BME280;5577;42.706;23.160;2023-06-01T10:45:45;94232.69;;;21.20;100.00
11049;BME280;5577;42.706;23.160;2023-06-01T10:48:54;94229.63;;;21.18;100.00
11049;BME280;5577;42.706;23.160;2023-06-01T10:51:39;94224.78;;;21.32;100.00
11049;BME280;5577;42.706;23.160;2023-06-01T10:54:28;94219.84;;;21.50;100.00
11049;BME280;5577;42.706;23.160;2023-06-01T10:57:20;94210.16;;;21.76;100.00
11049;BME280;5577;42.706;23.160;2023-06-01T11:00:23;94203.53;;;21.57;100.00
11049;BME280;5577;42.706;23.160;2023-06-01T11:03:10;94208.25;;;21.53;100.00
11049;BME280;5577;42.706;23.160;2023-06-01T11:05:54;94197.25;;;21.64;100.00
11049;BME280;5577;42.706;23.160;2023-06-01T11:11:22;94159.50;;;21.87;100.00
11049;BME280;5577;42.706;23.160;2023-06-01T11:14:08;94183.38;;;22.60;100.00
11049;BME280;5577;42.706;23.160;2023-06-01T11:16:53;94183.97;;;22.99;100.00
11049;BME280;5577;42.706;23.160;2023-06-01T11:19:38;94174.19;;;23.37;100.00
11049;BME280;5577;42.706;23.160;2023-06-01T11:22:24;94149.03;;;23.40;100.00
11049;BME280;5577;42.706;23.160;2023-06-01T11:25:09;94171.09;;;23.80;99.92
11049;BME280;5577;42.706;23.160;2023-06-01T11:27:54;94171.09;;;25.21;96.81
11049;BME280;5577;42.706;23.160;2023-06-01T11:30:38;94162.28;;;26.59;79.91
11049;BME280;5577;42.706;23.160;2023-06-01T11:33:23;94165.28;;;27.49;76.67
11049;BME280;5577;42.706;23.160;2023-06-01T11:36:08;94165.91;;;27.98;59.13
11049;BME280;5577;42.706;23.160;2023-06-01T11:38:54;94143.66;;;28.09;55.98
11049;BME280;5577;42.706;23.160;2023-06-01T11:41:42;94149.78;;;28.45;54.87
11049;BME280;5577;42.706;23.160;2023-06-01T11:44:28;94126.03;;;28.78;53.15
11049;BME280;5577;42.706;23.160;2023-06-01T11:47:12;94151.91;;;28.50;48.53
11049;BME280;5577;42.706;23.160;2023-06-01T11:49:56;94145.63;;;28.08;47.74
11049;BME280;5577;42.706;23.160;2023-06-01T11:52:40;94144.56;;;26.67;57.29
11049;BME280;5577;42.706;23.160;2023-06-01T11:55:24;94149.50;;;25.86;59.70
11049;BME280;5577;42.706;23.160;2023-06-01T11:58:09;94150.75;;;25.51;67.84
11049;BME280;5577;42.706;23.160;2023-06-01T12:00:54;94158.91;;;25.72;68.43
11049;BME280;5577;42.706;23.160;2023-06-01T12:03:47;94122.97;;;25.25;67.47
11049;BME280;5577;42.706;23.160;2023-06-01T12:06:31;94146.41;;;25.07;63.71
11049;BME280;5577;42.706;23.160;2023-06-01T12:09:17;94117.44;;;24.57;69.93
11049;BME280;5577;42.706;23.160;2023-06-01T12:12:02;94133.22;;;24.58;68.32
11049;BME280;5577;42.706;23.160;2023-06-01T12:14:46;94136.50;;;24.53;68.34
11049;BME280;5577;42.706;23.160;2023-06-01T12:17:52;94148.47;;;24.15;69.43
11049;BME280;5577;42.706;23.160;2023-06-01T12:20:39;94146.31;;;23.81;71.30
11049;BME280;5577;42.706;23.160;2023-06-01T12:23:25;94136.16;;;23.85;70.76
11049;BME280;5577;42.706;23.160;2023-06-01T12:26:09;94126.09;;;24.39;67.09
11049;BME280;5577;42.706;23.160;2023-06-01T12:28:53;94133.88;;;24.37;69.26
11049;BME280;5577;42.706;23.160;2023-06-01T12:31:51;94106.72;;;24.78;66.99
11049;BME280;5577;42.706;23.160;2023-06-01T12:34:37;94090.94;;;24.64;70.99
11049;BME280;5577;42.706;23.160;2023-06-01T12:37:22;94114.84;;;24.78;68.75
11049;BME280;5577;42.706;23.160;2023-06-01T12:40:07;94112.03;;;24.44;69.48
11049;BME280;5577;42.706;23.160;2023-06-01T12:42:53;94108.84;;;24.83;73.25
11049;BME280;5577;42.706;23.160;2023-06-01T12:45:37;94104.88;;;24.38;69.21
11049;BME280;5577;42.706;23.160;2023-06-01T12:48:32;94093.50;;;25.15;64.53
11049;BME280;5577;42.706;23.160;2023-06-01T12:51:18;94098.22;;;26.00;62.60
11049;BME280;5577;42.706;23.160;2023-06-01T12:54:02;94093.34;;;25.65;63.58
11049;BME280;5577;42.706;23.160;2023-06-01T12:56:50;94096.41;;;24.86;65.10
11049;BME280;5577;42.706;23.160;2023-06-01T12:59:35;94098.47;;;23.94;64.74
11049;BME280;5577;42.706;23.160;2023-06-01T13:02:19;94101.19;;;24.07;67.84
11049;BME280;5577;42.706;23.160;2023-06-01T13:05:03;94090.41;;;25.03;64.52
11049;BME280;5577;42.706;23.160;2023-06-01T13:07:49;94088.59;;;25.35;63.73
11049;BME280;5577;42.706;23.160;2023-06-01T13:10:33;94080.63;;;24.72;66.11
11049;BME280;5577;42.706;23.160;2023-06-01T13:13:17;94076.75;;;23.98;66.40
11049;BME280;5577;42.706;23.160;2023-06-01T13:16:01;94071.81;;;23.68;68.39
11049;BME280;5577;42.706;23.160;2023-06-01T13:18:46;94067.06;;;23.31;67.49
11049;BME280;5577;42.706;23.160;2023-06-01T13:21:34;94070.94;;;22.85;67.54
11049;BME280;5577;42.706;23.160;2023-06-01T13:24:18;94065.16;;;23.44;70.50
11049;BME280;5577;42.706;23.160;2023-06-01T13:27:02;94058.25;;;24.21;68.78
11049;BME280;5577;42.706;23.160;2023-06-01T13:29:48;94056.41;;;24.18;66.10
11049;BME280;5577;42.706;23.160;2023-06-01T13:32:33;94050.66;;;24.04;65.84
11049;BME280;5577;42.706;23.160;2023-06-01T13:35:17;94037.47;;;23.93;68.86
11049;BME280;5577;42.706;23.160;2023-06-01T13:38:02;94047.13;;;23.66;69.49
11049;BME280;5577;42.706;23.160;2023-06-01T13:40:46;94047.16;;;23.78;70.38
11049;BME280;5577;42.706;23.160;2023-06-01T13:43:30;94036.09;;;23.48;67.52
11049;BME280;5577;42.706;23.160;2023-06-01T13:46:14;94038.44;;;23.33;69.78
11049;BME280;5577;42.706;23.160;2023-06-01T13:48:58;94035.41;;;23.15;69.25
11049;BME280;5577;42.706;23.160;2023-06-01T13:51:42;94026.84;;;23.61;71.47
11049;BME280;5577;42.706;23.160;2023-06-01T13:54:26;94025.66;;;23.75;71.57
11049;BME280;5577;42.706;23.160;2023-06-01T13:57:10;94037.56;;;24.02;71.67
11049;BME280;5577;42.706;23.160;2023-06-01T13:59:54;94037.22;;;24.63;70.56
11049;BME280;5577;42.706;23.160;2023-06-01T14:02:38;94038.16;;;25.37;66.14
11049;BME280;5577;42.706;23.160;2023-06-01T14:05:22;94051.56;;;25.19;66.93
11049;BME280;5577;42.706;23.160;2023-06-01T14:08:06;94047.72;;;24.36;65.27
11049;BME280;5577;42.706;23.160;2023-06-01T14:10:51;94064.34;;;23.72;65.55
11049;BME280;5577;42.706;23.160;2023-06-01T14:13:35;94061.78;;;23.40;66.23
11049;BME280;5577;42.706;23.160;2023-06-01T14:16:19;94070.94;;;23.01;67.20
11049;BME280;5577;42.706;23.160;2023-06-01T14:19:03;94062.91;;;22.53;68.82
11049;BME280;5577;42.706;23.160;2023-06-01T14:21:47;94069.41;;;22.20;70.19
11049;BME280;5577;42.706;23.160;2023-06-01T14:24:31;94079.94;;;22.14;74.29
11049;BME280;5577;42.706;23.160;2023-06-01T14:27:15;94074.19;;;21.80;76.89
11049;BME280;5577;42.706;23.160;2023-06-01T14:29:58;94066.78;;;21.65;79.66
11049;BME280;5577;42.706;23.160;2023-06-01T14:32:44;94073.56;;;21.73;89.78
11049;BME280;5577;42.706;23.160;2023-06-01T14:35:29;94071.63;;;21.54;87.48
11049;BME280;5577;42.706;23.160;2023-06-01T14:38:13;94072.38;;;21.54;86.07
11049;BME280;5577;42.706;23.160;2023-06-01T14:40:57;94081.69;;;21.50;83.54
11049;BME280;5577;42.706;23.160;2023-06-01T14:43:41;94069.34;;;21.33;85.09